El Paso, TX

4:32 AM MST en Febrero 20, 2017 (GMT -0700)
Manhattan | | Change Station

Alt 4550 ft 31.80 °N, 106.46 °W | Updated 2 minutes ago

Despejado
Despejado
48.2 ° F
Sensación térmica 44 ° F
N
9.9
Viento Variable Viento desde ONO
Gusts 28.9 mph

Hoy
Alta -- | Baja -- ° F
--% Posibilidad de precipitaciones
Ayer
Alta -- | Baja -- ° F
Precip. -- pul
Presión 29.94 pul
Visibilidad 10.0 Millas
Nubes Baja 3000 ft
Baja 3200 ft
Vientos helados 44 ° F
Punto de rocío 37 ° F
Humedad 66%
Precipitaciones 0.00 pul
Espesor de la nieve No disponible.
6:42 AM 5:57 PM
Creciente menguante, 35% visible
METAR KELP 201051Z 27020G30KT 10SM FEW030 FEW032 09/01 A3004 RMK AO2 PK WND 28030/1049 SLP139 T00890011
Presión 29.94 pul
Visibilidad 10.0 Millas
Nubes Baja 3000 ft
Baja 3200 ft
Vientos helados 44 ° F
Punto de rocío 37 ° F
Humedad 66%
Precipitaciones 0.00 pul
Espesor de la nieve No disponible.
6:42 AM 5:57 PM
Creciente menguante, 35% visible
METAR KELP 201051Z 27020G30KT 10SM FEW030 FEW032 09/01 A3004 RMK AO2 PK WND 28030/1049 SLP139 T00890011

Get Your Daily Forecast Email!

Thanks for signing up!

Be on the lookout for a verification email in your inbox.

You'll start receiving the daily forecast at 8 AM.

×

10-Day Weather Forecast

Almanac

Astronomía

Feb. 20, 2017 Salida Puesta
Hora real
Crepúsculo civil
Crepúsculo náutico
Crepúsculo astronómico
Luna
Horas de luz
Horas de luz
Tomorrow will be .
, % of the Moon is Illuminated

Extremos de hoy

Máximos del estado Bajos del estado

Community

WunderPhotos

Upload Photos

1,962,540 ¡fotos cargadas!

WunderBlog® & News

Nearby

Calidad del aire

  Calidad del aire Índice AQ Contaminante
Not available.

Grosos de nieve

Estación Profundido Altura

Actividad de terremotos

Ciudad Distance Mag. Tiempo y dato
Magnitud mínima muestra es 2,5.

Temperaturas de aguas costeras

Lugar Temperatura

Stations

Estaciones meteorológicas cercanas

Ubicación de la estación Temp. Vientos helados Punto de rocío Humedad Viento Precip. Alt Actualizado Tipo
                   

Watches & Warnings

There are currently no watches in effect.